createdAt,value
2023-03-02T00:02:13.879Z,99.90
2023-03-02T00:04:40.392Z,99.90
2023-03-02T00:07:10.544Z,99.90
2023-03-02T00:09:38.464Z,99.90
2023-03-02T00:12:06.039Z,99.90
2023-03-02T00:14:32.576Z,99.90
2023-03-02T00:16:59.142Z,99.90
2023-03-02T00:19:25.635Z,99.90
2023-03-02T00:21:52.180Z,99.90
2023-03-02T00:24:18.741Z,99.90
2023-03-02T00:26:45.625Z,99.90
2023-03-02T00:29:12.240Z,99.90
2023-03-02T00:31:38.843Z,99.90
2023-03-02T00:34:05.548Z,99.90
2023-03-02T00:36:32.473Z,99.90
2023-03-02T00:38:59.256Z,99.90
2023-03-02T00:41:25.836Z,99.90
2023-03-02T00:43:52.405Z,99.90
2023-03-02T00:46:22.314Z,99.90
2023-03-02T00:48:49.813Z,99.90
2023-03-02T00:51:16.499Z,99.90
2023-03-02T00:53:43.169Z,99.90
2023-03-02T00:56:10.283Z,99.90
2023-03-02T00:58:37.297Z,99.90
2023-03-02T01:01:10.427Z,99.90
2023-03-02T01:03:37.288Z,99.90
2023-03-02T01:06:04.680Z,99.90
2023-03-02T01:08:31.569Z,99.90
2023-03-02T01:11:01.267Z,99.90
2023-03-02T01:13:28.648Z,99.90
2023-03-02T01:16:03.060Z,99.90
2023-03-02T01:18:30.142Z,99.90
2023-03-02T01:21:14.019Z,99.90
2023-03-02T01:23:40.862Z,99.90
2023-03-02T01:26:07.531Z,99.90
2023-03-02T01:28:34.146Z,99.90
2023-03-02T01:31:02.548Z,99.90
2023-03-02T01:33:29.185Z,99.90
2023-03-02T01:35:55.793Z,99.90
2023-03-02T01:38:22.331Z,99.90
2023-03-02T01:44:39.594Z,99.90
2023-03-02T01:47:13.886Z,99.90
2023-03-02T01:49:46.045Z,99.90
2023-03-02T01:52:13.232Z,99.90
2023-03-02T01:54:42.383Z,99.90
2023-03-02T01:57:10.223Z,99.90
2023-03-02T01:59:40.961Z,99.90
2023-03-02T02:02:10.336Z,99.90
2023-03-02T02:04:39.817Z,99.90
2023-03-02T02:07:09.033Z,99.90
2023-03-02T02:09:40.339Z,99.90
2023-03-02T02:12:12.562Z,99.90
2023-03-02T02:14:39.546Z,99.90
2023-03-02T02:17:06.396Z,99.90
2023-03-02T02:19:44.543Z,99.90
2023-03-02T02:22:11.828Z,99.90
2023-03-02T02:24:51.841Z,99.90
2023-03-02T02:27:18.368Z,99.90
2023-03-02T02:29:49.231Z,99.90
2023-03-02T02:32:24.044Z,99.90
2023-03-02T02:34:58.719Z,99.90
2023-03-02T02:37:38.272Z,99.90
2023-03-02T02:40:09.551Z,99.90
2023-03-02T02:42:40.671Z,99.90
2023-03-02T02:45:17.782Z,99.90
2023-03-02T02:47:44.416Z,99.90
2023-03-02T02:50:24.704Z,99.90
2023-03-02T02:53:19.683Z,99.90
2023-03-02T02:55:49.328Z,99.90
2023-03-02T02:58:25.236Z,99.90
2023-03-02T03:00:53.781Z,99.90
2023-03-02T03:03:32.726Z,99.90
2023-03-02T03:06:01.618Z,99.90
2023-03-02T03:08:46.324Z,99.90
2023-03-02T03:11:16.228Z,99.90
2023-03-02T03:13:43.931Z,99.90
2023-03-02T03:16:14.429Z,99.90
2023-03-02T03:18:46.780Z,99.90
2023-03-02T03:21:13.371Z,99.90
2023-03-02T03:23:39.940Z,99.90
2023-03-02T03:26:06.592Z,99.90
2023-03-02T03:28:33.722Z,99.90
2023-03-02T03:31:00.331Z,99.90
2023-03-02T03:33:27.062Z,99.90
2023-03-02T03:35:53.853Z,99.90
2023-03-02T03:38:20.670Z,99.90
2023-03-02T03:40:47.315Z,99.90
2023-03-02T03:43:15.089Z,99.90
2023-03-02T03:45:41.730Z,99.90
2023-03-02T03:48:08.424Z,99.90
2023-03-02T03:50:35.406Z,99.90
2023-03-02T03:53:03.838Z,99.90
2023-03-02T03:55:31.253Z,99.90
2023-03-02T03:57:57.835Z,99.90
2023-03-02T04:00:24.563Z,99.90
2023-03-02T04:02:51.312Z,99.90
2023-03-02T04:05:18.358Z,99.90
2023-03-02T04:07:45.026Z,99.90
2023-03-02T04:10:12.464Z,99.90
2023-03-02T04:12:40.990Z,99.90
2023-03-02T04:15:10.134Z,99.90
2023-03-02T04:17:36.686Z,99.90
2023-03-02T04:20:06.770Z,99.90
2023-03-02T04:22:33.454Z,99.90
2023-03-02T04:25:00.008Z,99.90
2023-03-02T04:27:26.563Z,99.90
2023-03-02T04:29:53.152Z,99.90
2023-03-02T04:32:20.561Z,99.90
2023-03-02T04:34:47.111Z,99.90
2023-03-02T04:37:15.601Z,99.90
2023-03-02T04:39:43.070Z,99.90
2023-03-02T04:42:09.595Z,99.90
2023-03-02T04:44:36.107Z,99.90
2023-03-02T04:47:02.675Z,99.90
2023-03-02T04:49:29.339Z,99.90
2023-03-02T04:51:55.882Z,99.90
2023-03-02T04:54:26.149Z,99.90
2023-03-02T04:56:53.823Z,99.90
2023-03-02T04:59:25.841Z,99.90
2023-03-02T05:01:54.707Z,99.90
2023-03-02T05:04:21.681Z,99.90
2023-03-02T05:06:48.251Z,99.90
2023-03-02T05:09:15.566Z,99.90
2023-03-02T05:11:42.169Z,99.90
2023-03-02T05:14:11.353Z,99.90
2023-03-02T05:16:39.757Z,99.90
2023-03-02T05:19:08.593Z,99.90
2023-03-02T05:21:35.337Z,99.90
2023-03-02T05:24:03.137Z,99.90
2023-03-02T05:26:29.816Z,99.90
2023-03-02T05:28:56.581Z,99.90
2023-03-02T05:31:29.256Z,99.90
2023-03-02T05:33:55.849Z,99.90
2023-03-02T05:36:23.384Z,99.90
2023-03-02T05:38:50.056Z,99.90
2023-03-02T05:41:16.799Z,99.90
2023-03-02T05:43:43.565Z,99.90
2023-03-02T05:46:10.209Z,99.90
2023-03-02T05:48:36.811Z,99.90
2023-03-02T05:51:03.700Z,99.90
2023-03-02T05:53:30.279Z,99.90
2023-03-02T05:55:56.824Z,99.90
2023-03-02T05:58:23.377Z,99.90
2023-03-02T06:00:50.009Z,99.90
2023-03-02T06:03:17.273Z,99.90
2023-03-02T06:05:43.932Z,99.90
2023-03-02T06:08:10.870Z,99.90
2023-03-02T06:10:37.470Z,99.90
2023-03-02T06:13:04.094Z,99.90
2023-03-02T06:15:30.725Z,99.90
2023-03-02T06:17:57.879Z,99.90
2023-03-02T06:20:24.804Z,99.90
2023-03-02T06:22:51.547Z,99.90
2023-03-02T06:25:23.407Z,99.90
2023-03-02T06:27:53.735Z,99.90
2023-03-02T06:30:23.250Z,99.90
2023-03-02T06:32:49.986Z,99.90
2023-03-02T06:35:16.876Z,99.90
2023-03-02T06:37:44.526Z,99.90
2023-03-02T06:40:13.538Z,99.90
2023-03-02T06:42:41.193Z,99.90
2023-03-02T06:45:08.682Z,99.90
2023-03-02T06:47:35.693Z,99.90
2023-03-02T06:50:02.502Z,99.90
2023-03-02T06:52:29.115Z,99.90
2023-03-02T06:54:56.682Z,99.90
2023-03-02T06:57:23.555Z,99.90
2023-03-02T06:59:50.128Z,99.90
2023-03-02T07:02:16.707Z,99.90
2023-03-02T07:04:43.299Z,99.90
2023-03-02T07:07:10.110Z,99.90
2023-03-02T07:09:36.684Z,99.90
2023-03-02T07:12:03.387Z,99.90
2023-03-02T07:14:29.943Z,99.90
2023-03-02T07:16:57.422Z,99.90
2023-03-02T07:19:24.123Z,99.90
2023-03-02T07:21:50.662Z,99.90
2023-03-02T07:24:17.194Z,99.90
2023-03-02T07:26:43.832Z,99.90
2023-03-02T07:29:10.378Z,99.90
2023-03-02T07:31:37.018Z,99.90
2023-03-02T07:34:03.855Z,99.90
2023-03-02T07:36:30.427Z,99.90
2023-03-02T07:38:57.493Z,99.90
2023-03-02T07:41:24.072Z,99.90
2023-03-02T07:43:50.628Z,99.90
2023-03-02T07:46:17.330Z,99.90
2023-03-02T07:48:44.104Z,99.90
2023-03-02T07:51:10.726Z,99.90
2023-03-02T07:53:40.170Z,99.90
2023-03-02T07:56:09.403Z,99.90
2023-03-02T07:58:36.018Z,99.90
2023-03-02T08:01:03.267Z,99.90
2023-03-02T08:03:29.833Z,99.90
2023-03-02T08:05:56.386Z,99.90
2023-03-02T08:08:22.965Z,99.90
2023-03-02T08:10:49.529Z,99.90
2023-03-02T08:13:16.419Z,99.90
2023-03-02T08:15:42.983Z,99.90
2023-03-02T08:18:09.599Z,99.90
2023-03-02T08:20:37.302Z,99.90
2023-03-02T08:23:03.854Z,99.90
2023-03-02T08:25:30.422Z,99.90
2023-03-02T08:27:56.941Z,99.90
2023-03-02T08:30:23.572Z,99.90
2023-03-02T08:32:50.191Z,99.90
2023-03-02T08:35:17.296Z,99.90
2023-03-02T08:37:43.882Z,99.90
2023-03-02T08:40:11.093Z,99.90
2023-03-02T08:42:37.665Z,99.90
2023-03-02T08:45:04.762Z,99.90
2023-03-02T08:47:32.347Z,99.90
2023-03-02T08:49:58.906Z,99.90
2023-03-02T08:52:25.508Z,99.90
2023-03-02T08:54:52.143Z,99.90
2023-03-02T08:57:20.373Z,99.90
2023-03-02T08:59:47.941Z,99.90
2023-03-02T09:02:14.604Z,99.90
2023-03-02T09:04:41.441Z,99.90
2023-03-02T09:07:09.509Z,99.90
2023-03-02T09:09:36.397Z,99.90
2023-03-02T09:12:03.007Z,99.90
2023-03-02T09:14:29.619Z,99.90
2023-03-02T09:16:56.293Z,99.90
2023-03-02T09:19:22.915Z,99.90
2023-03-02T09:21:49.719Z,99.90
2023-03-02T09:24:17.405Z,99.90
2023-03-02T09:26:44.241Z,99.90
2023-03-02T09:29:11.000Z,99.90
2023-03-02T09:31:38.310Z,99.90
2023-03-02T09:34:05.775Z,99.90
2023-03-02T09:36:32.733Z,99.90
2023-03-02T09:38:59.416Z,99.90
2023-03-02T09:41:40.403Z,99.90
2023-03-02T09:44:31.585Z,99.90
2023-03-02T09:47:05.371Z,99.90
2023-03-02T09:50:09.603Z,99.90
2023-03-02T09:52:40.652Z,99.90
2023-03-02T09:55:19.923Z,99.90
2023-03-02T09:57:47.002Z,99.90
2023-03-02T10:00:23.342Z,99.90
2023-03-02T10:02:54.466Z,99.90
2023-03-02T10:05:28.919Z,99.90
2023-03-02T10:07:57.829Z,99.90
2023-03-02T10:10:36.983Z,99.90
2023-03-02T10:13:26.474Z,99.90
2023-03-02T10:15:53.083Z,99.90
2023-03-02T10:18:48.410Z,99.90
2023-03-02T10:21:29.620Z,99.90
2023-03-02T10:24:12.325Z,99.90
2023-03-02T10:26:42.058Z,99.90
2023-03-02T10:29:46.029Z,99.90
2023-03-02T10:32:23.419Z,99.90
2023-03-02T10:34:52.435Z,99.90
2023-03-02T10:37:22.798Z,99.90
2023-03-02T10:39:49.677Z,99.80
2023-03-02T10:42:41.822Z,99.90
2023-03-02T10:45:30.995Z,99.90
2023-03-02T10:48:02.021Z,99.90
2023-03-02T10:50:30.514Z,99.90
2023-03-02T10:53:01.110Z,99.90
2023-03-02T10:55:28.746Z,99.90
2023-03-02T10:58:05.459Z,99.90
2023-03-02T11:00:33.791Z,99.90
2023-03-02T11:03:21.450Z,99.90
2023-03-02T11:05:48.256Z,99.70
2023-03-02T11:08:24.117Z,99.50
2023-03-02T11:11:00.825Z,99.90
2023-03-02T11:13:34.041Z,99.40
2023-03-02T11:16:22.181Z,99.30
2023-03-02T11:18:57.836Z,98.30
2023-03-02T11:21:45.175Z,98.50
2023-03-02T11:24:36.057Z,98.80
2023-03-02T11:27:03.392Z,99.00
2023-03-02T11:29:52.070Z,98.20
2023-03-02T11:32:22.574Z,98.20
2023-03-02T11:34:57.627Z,97.50
2023-03-02T11:37:30.115Z,97.60
2023-03-02T11:40:17.998Z,97.20
2023-03-02T11:42:45.642Z,96.80
2023-03-02T11:45:15.416Z,96.20
2023-03-02T11:47:54.303Z,96.60
2023-03-02T11:50:26.087Z,96.10
2023-03-02T11:52:58.543Z,96.00
2023-03-02T11:55:28.716Z,95.70
2023-03-02T12:00:31.116Z,95.10
2023-03-02T12:02:59.377Z,95.60
2023-03-02T12:05:29.223Z,95.90
2023-03-02T12:08:08.516Z,95.00
2023-03-02T12:10:42.407Z,94.70
2023-03-02T12:13:17.111Z,94.10
2023-03-02T12:15:46.774Z,94.00
2023-03-02T12:18:22.057Z,93.70
2023-03-02T12:21:08.618Z,93.70
2023-03-02T12:23:41.168Z,92.70
2023-03-02T12:26:20.273Z,91.50
2023-03-02T12:29:09.846Z,91.50
2023-03-02T12:31:47.255Z,90.50
2023-03-02T12:34:32.473Z,89.90
2023-03-02T12:37:04.359Z,90.00
2023-03-02T12:39:56.429Z,87.70
2023-03-02T12:42:44.515Z,88.20
2023-03-02T12:45:11.714Z,87.50
2023-03-02T12:47:41.401Z,87.20
2023-03-02T12:50:19.883Z,84.90
2023-03-02T12:53:04.031Z,86.20
2023-03-02T12:55:30.979Z,84.60
2023-03-02T12:58:02.964Z,84.70
2023-03-02T13:00:32.767Z,84.60
2023-03-02T13:03:02.122Z,85.60
2023-03-02T13:05:32.088Z,85.00
2023-03-02T13:08:04.191Z,82.40
2023-03-02T13:10:38.456Z,79.70
2023-03-02T13:13:21.017Z,81.60
2023-03-02T13:15:57.230Z,82.20
2023-03-02T13:18:27.150Z,82.90
2023-03-02T13:20:55.093Z,80.80
2023-03-02T13:23:21.656Z,80.60
2023-03-02T13:25:54.413Z,80.80
2023-03-02T13:28:32.463Z,79.60
2023-03-02T13:31:07.214Z,79.40
2023-03-02T13:33:42.359Z,79.50
2023-03-02T13:36:16.966Z,78.30
2023-03-02T13:38:57.100Z,77.00
2023-03-02T13:41:25.987Z,77.30
2023-03-02T13:43:52.841Z,78.30
2023-03-02T13:46:20.045Z,77.60
2023-03-02T13:49:09.184Z,76.40
2023-03-02T13:51:40.866Z,76.70
2023-03-02T13:54:22.780Z,76.20
2023-03-02T13:56:51.302Z,75.30
2023-03-02T13:59:20.041Z,72.40
2023-03-02T14:01:47.388Z,68.70
2023-03-02T14:04:17.533Z,69.10
2023-03-02T14:06:45.347Z,69.50
2023-03-02T14:09:12.055Z,72.00
2023-03-02T14:11:49.111Z,71.00
2023-03-02T14:14:24.668Z,71.40
2023-03-02T14:16:51.429Z,71.40
2023-03-02T14:19:18.531Z,70.00
2023-03-02T14:21:46.542Z,70.10
2023-03-02T14:24:13.249Z,70.10
2023-03-02T14:26:47.135Z,70.20
2023-03-02T14:29:28.932Z,69.40
2023-03-02T14:31:56.870Z,70.80
2023-03-02T14:34:23.575Z,71.30
2023-03-02T14:36:53.468Z,71.20
2023-03-02T14:39:22.191Z,71.10
2023-03-02T14:45:42.464Z,73.30
2023-03-02T14:48:08.984Z,73.20
2023-03-02T14:50:40.375Z,73.70
2023-03-02T14:53:12.510Z,72.90
2023-03-02T14:55:40.998Z,73.30
2023-03-02T14:58:18.111Z,74.20
2023-03-02T15:00:45.115Z,73.90
2023-03-02T15:03:22.448Z,74.00
2023-03-02T15:06:00.880Z,74.10
2023-03-02T15:08:29.064Z,73.90
2023-03-02T15:10:55.973Z,75.20
2023-03-02T15:13:22.550Z,75.30
2023-03-02T15:15:49.938Z,74.00
2023-03-02T15:18:19.549Z,72.30
2023-03-02T15:20:46.337Z,71.20
2023-03-02T15:23:12.924Z,70.60
2023-03-02T15:25:39.626Z,70.30
2023-03-02T15:28:06.234Z,68.00
2023-03-02T15:30:32.782Z,68.10
2023-03-02T15:32:59.477Z,67.90
2023-03-02T15:35:27.793Z,68.80
2023-03-02T15:37:55.577Z,69.60
2023-03-02T15:40:22.129Z,69.20
2023-03-02T15:42:48.916Z,68.80
2023-03-02T15:45:15.507Z,69.10
2023-03-02T15:47:42.118Z,69.60
2023-03-02T15:50:09.797Z,69.60
2023-03-02T15:52:36.382Z,70.30
2023-03-02T15:55:03.414Z,71.50
2023-03-02T15:57:29.986Z,71.30
2023-03-02T15:59:56.591Z,71.20
2023-03-02T16:02:23.094Z,71.60
2023-03-02T16:04:49.624Z,71.00
2023-03-02T16:07:16.139Z,71.40
2023-03-02T16:09:45.176Z,72.20
2023-03-02T16:12:11.750Z,73.50
2023-03-02T16:14:38.310Z,72.90
2023-03-02T16:17:04.907Z,73.70
2023-03-02T16:19:32.155Z,74.60
2023-03-02T16:21:58.888Z,74.90
2023-03-02T16:24:25.582Z,75.00
2023-03-02T16:26:53.073Z,75.80
2023-03-02T16:29:19.750Z,76.00
2023-03-02T16:31:47.258Z,75.80
2023-03-02T16:34:14.208Z,76.00
2023-03-02T16:36:42.049Z,76.40
2023-03-02T16:39:10.521Z,76.30
2023-03-02T16:41:39.468Z,75.60
2023-03-02T16:44:06.676Z,75.80
2023-03-02T16:46:36.562Z,76.20
2023-03-02T16:49:04.025Z,76.50
2023-03-02T16:51:30.602Z,77.50
2023-03-02T16:53:57.332Z,79.10
2023-03-02T16:56:24.143Z,80.80
2023-03-02T16:58:50.662Z,80.60
2023-03-02T17:01:20.266Z,80.70
2023-03-02T17:03:47.856Z,81.00
2023-03-02T17:06:16.271Z,80.60
2023-03-02T17:08:43.041Z,80.70
2023-03-02T17:11:09.990Z,80.80
2023-03-02T17:13:36.698Z,81.30
2023-03-02T17:16:03.599Z,82.00
2023-03-02T17:18:30.700Z,81.40
2023-03-02T17:20:58.705Z,81.70
2023-03-02T17:23:27.077Z,81.70
2023-03-02T17:25:54.458Z,82.60
2023-03-02T17:28:21.472Z,83.30
2023-03-02T17:30:48.140Z,83.50
2023-03-02T17:33:14.959Z,84.20
2023-03-02T17:35:42.464Z,84.80
2023-03-02T17:38:09.296Z,85.60
2023-03-02T17:40:35.978Z,86.70
2023-03-02T17:43:02.821Z,86.90
2023-03-02T17:45:29.665Z,86.80
2023-03-02T17:47:57.906Z,87.10
2023-03-02T17:50:25.037Z,89.50
2023-03-02T17:52:51.684Z,88.90
2023-03-02T17:55:18.387Z,89.40
2023-03-02T17:57:45.064Z,87.00
2023-03-02T18:00:16.261Z,87.40
2023-03-02T18:02:42.903Z,87.20
2023-03-02T18:05:10.481Z,87.60
2023-03-02T18:07:37.580Z,88.00
2023-03-02T18:10:06.931Z,88.90
2023-03-02T18:12:34.588Z,89.50
2023-03-02T18:15:01.373Z,88.20
2023-03-02T18:17:28.312Z,87.50
2023-03-02T18:19:55.005Z,87.80
2023-03-02T18:22:21.984Z,88.50
2023-03-02T18:24:50.573Z,87.80
2023-03-02T18:27:17.543Z,87.60
2023-03-02T18:29:44.315Z,88.10
2023-03-02T18:32:11.542Z,88.80
2023-03-02T18:34:40.927Z,89.90
2023-03-02T18:37:08.172Z,87.80
2023-03-02T18:39:35.106Z,87.70
2023-03-02T18:42:01.794Z,88.50
2023-03-02T18:44:31.121Z,87.80
2023-03-02T18:46:58.583Z,86.40
2023-03-02T18:49:25.549Z,85.90
2023-03-02T18:51:53.006Z,85.50
2023-03-02T18:54:19.630Z,85.00
2023-03-02T18:56:46.359Z,85.10
2023-03-02T18:59:13.886Z,86.10
2023-03-02T19:01:40.764Z,87.10
2023-03-02T19:04:07.447Z,87.30
2023-03-02T19:06:34.543Z,87.10
2023-03-02T19:09:01.266Z,87.10
2023-03-02T19:15:10.421Z,87.60
2023-03-02T19:17:39.604Z,86.60
2023-03-02T19:20:07.518Z,86.30
2023-03-02T19:22:34.601Z,85.70
2023-03-02T19:25:01.186Z,86.10
2023-03-02T19:27:27.835Z,86.80
2023-03-02T19:29:54.551Z,86.70
2023-03-02T19:32:21.442Z,86.20
2023-03-02T19:34:48.683Z,84.80
2023-03-02T19:37:15.408Z,84.50
2023-03-02T19:39:42.357Z,85.40
2023-03-02T19:42:09.458Z,85.50
2023-03-02T19:44:36.456Z,84.30
2023-03-02T19:47:04.176Z,83.90
2023-03-02T19:49:30.702Z,84.60
2023-03-02T19:51:58.892Z,86.00
2023-03-02T19:54:25.785Z,84.90
2023-03-02T19:56:53.821Z,85.30
2023-03-02T19:59:22.029Z,85.80
2023-03-02T20:01:51.018Z,86.70
2023-03-02T20:04:18.513Z,84.60
2023-03-02T20:06:45.561Z,84.70
2023-03-02T20:09:14.437Z,83.90
2023-03-02T20:11:41.009Z,83.40
2023-03-02T20:14:07.587Z,84.10
2023-03-02T20:16:35.549Z,84.20
2023-03-02T20:19:03.249Z,85.00
2023-03-02T20:21:31.367Z,85.00
2023-03-02T20:23:58.410Z,85.10
2023-03-02T20:26:26.521Z,85.40
2023-03-02T20:28:55.327Z,85.50
2023-03-02T20:31:24.468Z,86.10
2023-03-02T20:33:54.201Z,85.20
2023-03-02T20:36:28.024Z,85.20
2023-03-02T20:39:00.443Z,86.10
2023-03-02T20:41:27.394Z,86.30
2023-03-02T20:43:54.340Z,86.80
2023-03-02T20:46:25.102Z,87.10
2023-03-02T20:48:52.731Z,87.70
2023-03-02T20:51:20.482Z,88.30
2023-03-02T20:53:47.149Z,88.10
2023-03-02T20:56:15.204Z,87.80
2023-03-02T20:58:43.305Z,88.90
2023-03-02T21:01:11.332Z,88.50
2023-03-02T21:03:38.548Z,87.90
2023-03-02T21:06:07.267Z,89.50
2023-03-02T21:08:38.569Z,90.20
2023-03-02T21:11:10.629Z,90.50
2023-03-02T21:13:39.043Z,90.90
2023-03-02T21:16:08.404Z,91.10
2023-03-02T21:18:35.308Z,91.60
2023-03-02T21:21:02.812Z,91.80
2023-03-02T21:23:29.469Z,92.10
2023-03-02T21:25:56.919Z,91.80
2023-03-02T21:28:23.564Z,92.10
2023-03-02T21:30:50.276Z,93.50
2023-03-02T21:33:16.906Z,94.10
2023-03-02T21:35:46.196Z,94.40
2023-03-02T21:38:13.251Z,94.20
2023-03-02T21:40:45.628Z,95.50
2023-03-02T21:43:13.192Z,96.00
2023-03-02T21:45:41.154Z,95.90
2023-03-02T21:48:08.488Z,95.40
2023-03-02T21:50:37.868Z,95.60
2023-03-02T21:53:05.169Z,95.60
2023-03-02T21:55:32.923Z,96.00
2023-03-02T21:58:00.113Z,97.20
2023-03-02T22:00:32.851Z,97.60
2023-03-02T22:03:00.600Z,97.10
2023-03-02T22:05:27.808Z,96.90
2023-03-02T22:07:55.062Z,97.40
2023-03-02T22:10:37.913Z,98.60
2023-03-02T22:13:13.474Z,99.60
2023-03-02T22:15:41.484Z,99.20
2023-03-02T22:18:16.354Z,99.30
2023-03-02T22:20:45.334Z,99.90
2023-03-02T22:23:14.383Z,99.90
2023-03-02T22:25:43.408Z,99.90
2023-03-02T22:28:22.525Z,99.90
2023-03-02T22:30:53.633Z,99.90
2023-03-02T22:33:23.586Z,99.90
2023-03-02T22:35:51.592Z,99.90
2023-03-02T22:38:22.843Z,99.90
2023-03-02T22:40:49.566Z,99.90
2023-03-02T22:43:24.777Z,99.90
2023-03-02T22:46:15.726Z,99.90
2023-03-02T22:48:44.920Z,99.90
2023-03-02T22:51:27.843Z,99.90
2023-03-02T22:53:56.783Z,99.90
2023-03-02T22:56:28.578Z,99.90
2023-03-02T22:58:56.776Z,99.90
2023-03-02T23:01:24.837Z,99.90
2023-03-02T23:03:54.936Z,99.90
2023-03-02T23:06:33.195Z,99.90
2023-03-02T23:09:02.160Z,99.90
2023-03-02T23:11:31.735Z,99.90
2023-03-02T23:14:01.729Z,99.90
2023-03-02T23:16:34.016Z,99.90
2023-03-02T23:19:01.631Z,99.90
2023-03-02T23:21:38.715Z,99.90
2023-03-02T23:24:07.376Z,99.90
2023-03-02T23:26:34.556Z,99.90
2023-03-02T23:29:01.273Z,99.90
2023-03-02T23:31:27.864Z,99.90
2023-03-02T23:33:54.527Z,99.90
2023-03-02T23:36:21.317Z,99.90
2023-03-02T23:38:48.864Z,99.90
2023-03-02T23:41:16.063Z,99.90
2023-03-02T23:43:42.762Z,99.90
2023-03-02T23:46:13.823Z,99.90
2023-03-02T23:48:41.784Z,99.90
2023-03-02T23:51:08.866Z,99.90
2023-03-02T23:53:35.539Z,99.90
2023-03-02T23:56:02.317Z,99.90
2023-03-02T23:58:28.960Z,99.90
